EZY253 EGPH-EGCC
Flight info
| Callsign | EZY253 |
|---|---|
| Flight time | N/A |
| Altitude | 25000 |
| Route | GOSAM P600 FENIK L612 LAKEY |
| Aircraft | A20N/M-SDFGRWY/C |
Departure
| Time | N/A |
|---|---|
| Airport | Edinburgh Airport (EGPH) |
Arrival
| Time | 2026-05-03 20:43 |
|---|---|
| Airport | Manchester Airport (EGCC) |
| Time | Latitude | Longitude | Altitude | Speed | Heading |
|---|---|---|---|---|---|
| 2026-05-03 20:15 | 55.29227 | -3.88029 | 24996 ft | 442 kts | 151° |
| 2026-05-03 20:15 | 55.26507 | -3.85414 | 24998 ft | 444 kts | 151° |
| 2026-05-03 20:15 | 55.23780 | -3.82799 | 25002 ft | 457 kts | 151° |
| 2026-05-03 20:15 | 55.20954 | -3.80092 | 25001 ft | 468 kts | 151° |
| 2026-05-03 20:16 | 55.18100 | -3.77362 | 25001 ft | 478 kts | 151° |
| 2026-05-03 20:16 | 55.15166 | -3.74560 | 25000 ft | 486 kts | 151° |
| 2026-05-03 20:16 | 55.12194 | -3.71727 | 24999 ft | 489 kts | 151° |
| 2026-05-03 20:16 | 55.09218 | -3.68895 | 24998 ft | 490 kts | 151° |
| 2026-05-03 20:17 | 55.06229 | -3.66056 | 24998 ft | 490 kts | 151° |
| 2026-05-03 20:17 | 55.03227 | -3.63209 | 24998 ft | 490 kts | 151° |
| 2026-05-03 20:17 | 55.00236 | -3.60380 | 24998 ft | 490 kts | 151° |
| 2026-05-03 20:17 | 54.97269 | -3.57576 | 24998 ft | 490 kts | 151° |
| 2026-05-03 20:18 | 54.94264 | -3.54742 | 24998 ft | 490 kts | 151° |
| 2026-05-03 20:18 | 54.91251 | -3.51905 | 24998 ft | 490 kts | 151° |
| 2026-05-03 20:18 | 54.88269 | -3.49106 | 24998 ft | 490 kts | 151° |
| 2026-05-03 20:18 | 54.85286 | -3.46320 | 24997 ft | 490 kts | 151° |
| 2026-05-03 20:19 | 54.82277 | -3.43513 | 24997 ft | 490 kts | 151° |
| 2026-05-03 20:19 | 54.79301 | -3.40734 | 24997 ft | 490 kts | 151° |
| 2026-05-03 20:19 | 54.76293 | -3.37927 | 24995 ft | 487 kts | 151° |
| 2026-05-03 20:19 | 54.73375 | -3.35225 | 24988 ft | 466 kts | 152° |
| 2026-05-03 20:20 | 54.70750 | -3.33032 | 24984 ft | 447 kts | 156° |
| 2026-05-03 20:20 | 54.67950 | -3.30912 | 24462 ft | 442 kts | 156° |
| 2026-05-03 20:20 | 54.65157 | -3.28807 | 23889 ft | 437 kts | 156° |
| 2026-05-03 20:20 | 54.62371 | -3.26710 | 23373 ft | 431 kts | 156° |
| 2026-05-03 20:21 | 54.59644 | -3.24662 | 22880 ft | 424 kts | 156° |
| 2026-05-03 20:21 | 54.56959 | -3.22649 | 22400 ft | 418 kts | 156° |
| 2026-05-03 20:21 | 54.54345 | -3.20694 | 21937 ft | 412 kts | 156° |
| 2026-05-03 20:21 | 54.51734 | -3.18746 | 21464 ft | 406 kts | 156° |
| 2026-05-03 20:22 | 54.49153 | -3.16822 | 20994 ft | 401 kts | 156° |
| 2026-05-03 20:22 | 54.46622 | -3.14941 | 20525 ft | 396 kts | 156° |
| 2026-05-03 20:22 | 54.44120 | -3.13084 | 20156 ft | 388 kts | 156° |
| 2026-05-03 20:22 | 54.41673 | -3.11269 | 20001 ft | 383 kts | 156° |
| 2026-05-03 20:23 | 54.39245 | -3.09470 | 19989 ft | 384 kts | 156° |
| 2026-05-03 20:23 | 54.36801 | -3.07660 | 19978 ft | 383 kts | 156° |
| 2026-05-03 20:23 | 54.34385 | -3.05873 | 19613 ft | 380 kts | 156° |
| 2026-05-03 20:23 | 54.31920 | -3.04053 | 18712 ft | 389 kts | 156° |
| 2026-05-03 20:24 | 54.29445 | -3.02229 | 17881 ft | 394 kts | 156° |
| 2026-05-03 20:24 | 54.26971 | -3.00408 | 17625 ft | 382 kts | 156° |
| 2026-05-03 20:24 | 54.24604 | -2.98516 | 17383 ft | 371 kts | 153° |
| 2026-05-03 20:24 | 54.22362 | -2.96396 | 16978 ft | 366 kts | 149° |
| 2026-05-03 20:25 | 54.20245 | -2.94080 | 16482 ft | 364 kts | 147° |
| 2026-05-03 20:25 | 54.18121 | -2.91688 | 15985 ft | 361 kts | 146° |
| 2026-05-03 20:25 | 54.16042 | -2.89346 | 15503 ft | 359 kts | 146° |
| 2026-05-03 20:25 | 54.13985 | -2.87033 | 15024 ft | 356 kts | 146° |
| 2026-05-03 20:26 | 54.11930 | -2.84727 | 14543 ft | 354 kts | 146° |
| 2026-05-03 20:26 | 54.09865 | -2.82415 | 14060 ft | 351 kts | 146° |
| 2026-05-03 20:26 | 54.07843 | -2.80154 | 13584 ft | 349 kts | 146° |
| 2026-05-03 20:26 | 54.05839 | -2.77916 | 13112 ft | 346 kts | 146° |
| 2026-05-03 20:27 | 54.03823 | -2.75667 | 12637 ft | 344 kts | 146° |
| 2026-05-03 20:27 | 54.01866 | -2.73486 | 12253 ft | 339 kts | 146° |
| 2026-05-03 20:27 | 53.99880 | -2.71277 | 11724 ft | 339 kts | 146° |
| 2026-05-03 20:27 | 53.97935 | -2.69115 | 11241 ft | 337 kts | 146° |
| 2026-05-03 20:28 | 53.95973 | -2.66936 | 10777 ft | 335 kts | 146° |
| 2026-05-03 20:28 | 53.94035 | -2.64785 | 10313 ft | 332 kts | 146° |
| 2026-05-03 20:28 | 53.92108 | -2.62650 | 9847 ft | 330 kts | 146° |
| 2026-05-03 20:28 | 53.90209 | -2.60548 | 9446 ft | 325 kts | 146° |
| 2026-05-03 20:29 | 53.88338 | -2.58488 | 9261 ft | 314 kts | 147° |
| 2026-05-03 20:29 | 53.86526 | -2.56502 | 9071 ft | 304 kts | 147° |
| 2026-05-03 20:29 | 53.84779 | -2.54584 | 8887 ft | 294 kts | 147° |
| 2026-05-03 20:29 | 53.83102 | -2.52743 | 8706 ft | 285 kts | 147° |
| 2026-05-03 20:30 | 53.81443 | -2.50920 | 8416 ft | 280 kts | 147° |
| 2026-05-03 20:30 | 53.79834 | -2.49153 | 8048 ft | 279 kts | 146° |
| 2026-05-03 20:30 | 53.78207 | -2.47366 | 7678 ft | 278 kts | 146° |
| 2026-05-03 20:30 | 53.76597 | -2.45597 | 7314 ft | 276 kts | 146° |
| 2026-05-03 20:31 | 53.74980 | -2.43822 | 7037 ft | 273 kts | 146° |
| 2026-05-03 20:31 | 53.73403 | -2.42095 | 7006 ft | 275 kts | 146° |
| 2026-05-03 20:31 | 53.71794 | -2.40334 | 7001 ft | 275 kts | 146° |
| 2026-05-03 20:31 | 53.70188 | -2.38580 | 6999 ft | 275 kts | 146° |
| 2026-05-03 20:32 | 53.68512 | -2.37031 | 6976 ft | 270 kts | 163° |
| 2026-05-03 20:32 | 53.66718 | -2.36819 | 6973 ft | 255 kts | 192° |
| 2026-05-03 20:32 | 53.65069 | -2.37851 | 6994 ft | 253 kts | 205° |
| 2026-05-03 20:32 | 53.63509 | -2.39222 | 6996 ft | 253 kts | 208° |
| 2026-05-03 20:33 | 53.61961 | -2.40661 | 6997 ft | 253 kts | 208° |
| 2026-05-03 20:33 | 53.60443 | -2.42087 | 6997 ft | 253 kts | 208° |
| 2026-05-03 20:33 | 53.58895 | -2.43544 | 6997 ft | 253 kts | 208° |
| 2026-05-03 20:33 | 53.57367 | -2.44981 | 6997 ft | 253 kts | 208° |
| 2026-05-03 20:34 | 53.55812 | -2.46442 | 6997 ft | 253 kts | 208° |
| 2026-05-03 20:34 | 53.54279 | -2.47883 | 6997 ft | 253 kts | 208° |
| 2026-05-03 20:34 | 53.52751 | -2.49319 | 6937 ft | 250 kts | 208° |
| 2026-05-03 20:34 | 53.51241 | -2.50737 | 6590 ft | 250 kts | 209° |
| 2026-05-03 20:35 | 53.49718 | -2.52167 | 6234 ft | 250 kts | 209° |
| 2026-05-03 20:35 | 53.48215 | -2.53576 | 5917 ft | 249 kts | 209° |
| 2026-05-03 20:35 | 53.46704 | -2.54994 | 5597 ft | 248 kts | 209° |
| 2026-05-03 20:35 | 53.45216 | -2.56388 | 5282 ft | 247 kts | 209° |
| 2026-05-03 20:36 | 53.43708 | -2.57800 | 5077 ft | 244 kts | 209° |
| 2026-05-03 20:36 | 53.42229 | -2.59186 | 5064 ft | 246 kts | 209° |
| 2026-05-03 20:36 | 53.40734 | -2.60585 | 5060 ft | 246 kts | 209° |
| 2026-05-03 20:36 | 53.39240 | -2.61965 | 5049 ft | 245 kts | 205° |
| 2026-05-03 20:37 | 53.37619 | -2.62639 | 4773 ft | 243 kts | 178° |
| 2026-05-03 20:37 | 53.35960 | -2.62108 | 4420 ft | 243 kts | 162° |
| 2026-05-03 20:37 | 53.34379 | -2.61190 | 4131 ft | 241 kts | 159° |
| 2026-05-03 20:37 | 53.32807 | -2.60196 | 4070 ft | 242 kts | 159° |
| 2026-05-03 20:38 | 53.31247 | -2.59196 | 4047 ft | 240 kts | 159° |
| 2026-05-03 20:38 | 53.29700 | -2.58202 | 3764 ft | 240 kts | 158° |
| 2026-05-03 20:38 | 53.28135 | -2.57197 | 3412 ft | 240 kts | 158° |
| 2026-05-03 20:38 | 53.26594 | -2.56207 | 3122 ft | 238 kts | 158° |
| 2026-05-03 20:39 | 53.25101 | -2.55106 | 3033 ft | 227 kts | 145° |
| 2026-05-03 20:39 | 53.24097 | -2.53197 | 3021 ft | 223 kts | 110° |
| 2026-05-03 20:39 | 53.23962 | -2.50653 | 3023 ft | 215 kts | 75° |
| 2026-05-03 20:39 | 53.24646 | -2.48567 | 3012 ft | 204 kts | 43° |
| 2026-05-03 20:40 | 53.25713 | -2.47039 | 3034 ft | 204 kts | 39° |
| 2026-05-03 20:40 | 53.26726 | -2.45387 | 3014 ft | 202 kts | 48° |
| 2026-05-03 20:40 | 53.27636 | -2.43596 | 2770 ft | 201 kts | 51° |
| 2026-05-03 20:40 | 53.28500 | -2.41782 | 2529 ft | 202 kts | 51° |
| 2026-05-03 20:41 | 53.29399 | -2.39887 | 2019 ft | 214 kts | 51° |
| 2026-05-03 20:41 | 53.30337 | -2.37934 | 1629 ft | 219 kts | 51° |
| 2026-05-03 20:41 | 53.31285 | -2.35970 | 1337 ft | 211 kts | 50° |
| 2026-05-03 20:41 | 53.32178 | -2.34119 | 1110 ft | 196 kts | 51° |
| 2026-05-03 20:42 | 53.32982 | -2.32445 | 883 ft | 175 kts | 51° |
| 2026-05-03 20:42 | 53.33715 | -2.30928 | 613 ft | 162 kts | 51° |
| 2026-05-03 20:42 | 53.34392 | -2.29526 | 388 ft | 148 kts | 51° |
| 2026-05-03 20:42 | 53.35011 | -2.28235 | 261 ft | 134 kts | 51° |
| 2026-05-03 20:43 | 53.35510 | -2.27199 | 259 ft | 91 kts | 51° |
| 2026-05-03 20:43 | 53.35807 | -2.26592 | 259 ft | 49 kts | 51° |
| 2026-05-03 20:43 | 53.35968 | -2.26262 | 259 ft | 24 kts | 51° |
| 2026-05-03 20:43 | 53.36072 | -2.26183 | 259 ft | 13 kts | 348° |
| 2026-05-03 20:44 | 53.36137 | -2.26262 | 259 ft | 6 kts | 300° |
| 2026-05-03 20:44 | 53.36131 | -2.26336 | 259 ft | 7 kts | 237° |
| 2026-05-03 20:44 | 53.36128 | -2.26342 | 259 ft | 0 kts | 236° |
| 2026-05-03 20:44 | 53.36124 | -2.26352 | 259 ft | 3 kts | 234° |
| 2026-05-03 20:45 | 53.36100 | -2.26406 | 259 ft | 8 kts | 232° |
| 2026-05-03 20:45 | 53.36054 | -2.26502 | 259 ft | 12 kts | 230° |
| 2026-05-03 20:45 | 53.35989 | -2.26635 | 259 ft | 16 kts | 231° |
| 2026-05-03 20:45 | 53.35918 | -2.26786 | 259 ft | 16 kts | 236° |
| 2026-05-03 20:46 | 53.35875 | -2.26891 | 259 ft | 0 kts | 232° |
| 2026-05-03 20:48 | 53.35872 | -2.26896 | 259 ft | 2 kts | 232° |
| 2026-05-03 20:48 | 53.35851 | -2.26945 | 259 ft | 7 kts | 236° |
| 2026-05-03 20:48 | 53.35814 | -2.27050 | 259 ft | 12 kts | 236° |
| 2026-05-03 20:48 | 53.35814 | -2.27182 | 259 ft | 13 kts | 302° |
| 2026-05-03 20:49 | 53.35795 | -2.27314 | 259 ft | 13 kts | 226° |
| 2026-05-03 20:49 | 53.35727 | -2.27442 | 259 ft | 15 kts | 231° |
| 2026-05-03 20:49 | 53.35680 | -2.27571 | 259 ft | 8 kts | 278° |
| 2026-05-03 20:49 | 53.35732 | -2.27643 | 259 ft | 12 kts | 336° |
| 2026-05-03 20:50 | 53.35814 | -2.27733 | 259 ft | 13 kts | 316° |
| 2026-05-03 20:50 | 53.35880 | -2.27822 | 259 ft | 14 kts | 334° |
| 2026-05-03 20:50 | 53.35985 | -2.27832 | 259 ft | 17 kts | 9° |
| 2026-05-03 20:50 | 53.36087 | -2.27876 | 259 ft | 17 kts | 316° |
| 2026-05-03 20:51 | 53.36177 | -2.28035 | 259 ft | 19 kts | 310° |
| 2026-05-03 20:51 | 53.36276 | -2.28073 | 259 ft | 15 kts | 19° |
| 2026-05-03 20:51 | 53.36377 | -2.27960 | 259 ft | 17 kts | 47° |
| 2026-05-03 20:51 | 53.36434 | -2.27840 | 259 ft | 10 kts | 54° |
| 2026-05-03 20:52 | 53.36463 | -2.27785 | 259 ft | 0 kts | 45° |